Time;durP1;ratioP1;P1;durP2;ratioP2;P2;SDS_P1;SDS_P2;PMS_P1;PMS_P2;Temp;Humidity;BMP_temperature;BMP_pressure;BME280_temperature;BME280_humidity;BME280_pressure;Samples;Min_cycle;Max_cycle;Signal;HPM_P1;HPM_P2
2023/10/11 00:00:33;;;;;;;11.63;7.30;;;13.90;99.90;;;;;;5057033;28;20225;-82
2023/10/11 00:03:05;;;;;;;13.63;7.93;;;13.90;99.90;;;;;;5059919;28;20397;-82
2023/10/11 00:05:39;;;;;;;11.90;7.40;;;13.90;99.90;;;;;;5052429;28;20305;-82
2023/10/11 00:08:08;;;;;;;11.33;6.87;;;13.80;99.90;;;;;;5056758;28;20778;-83
2023/10/11 00:10:42;;;;;;;16.10;7.27;;;13.80;99.90;;;;;;5055386;28;20229;-82
2023/10/11 00:13:11;;;;;;;12.17;7.17;;;13.80;99.90;;;;;;5060054;28;20230;-83
2023/10/11 00:15:38;;;;;;;14.20;6.93;;;13.80;99.90;;;;;;5064030;28;20233;-83
2023/10/11 00:18:05;;;;;;;12.63;6.93;;;13.80;99.90;;;;;;5055295;28;20732;-82
2023/10/11 00:20:47;;;;;;;13.73;6.70;;;13.80;99.90;;;;;;5059382;28;20229;-82
2023/10/11 00:23:16;;;;;;;13.90;7.73;;;13.70;99.90;;;;;;5058652;28;20228;-82
2023/10/11 00:25:44;;;;;;;10.87;6.80;;;13.80;99.90;;;;;;5060692;28;20235;-84
2023/10/11 00:28:13;;;;;;;13.63;6.93;;;13.70;99.90;;;;;;5054260;28;20219;-84
2023/10/11 00:30:41;;;;;;;10.30;6.90;;;13.70;99.90;;;;;;5062074;28;20253;-85
2023/10/11 00:33:08;;;;;;;13.10;7.00;;;13.60;99.90;;;;;;5058569;28;20236;-81
2023/10/11 00:35:44;;;;;;;10.83;6.80;;;13.70;99.90;;;;;;5062260;28;20229;-81
2023/10/11 00:38:14;;;;;;;12.93;7.10;;;13.60;99.90;;;;;;5051402;28;20856;-82
2023/10/11 00:40:43;;;;;;;12.97;6.90;;;13.60;99.90;;;;;;5056979;28;20767;-82
2023/10/11 00:43:16;;;;;;;12.37;6.47;;;13.60;99.90;;;;;;5062167;28;20250;-82
2023/10/11 00:45:45;;;;;;;10.53;6.13;;;13.60;99.90;;;;;;5054919;28;20226;-82
2023/10/11 00:48:14;;;;;;;13.47;7.13;;;13.60;99.90;;;;;;5058746;28;20281;-82
2023/10/11 00:50:44;;;;;;;12.83;6.80;;;13.60;99.90;;;;;;5068901;28;20282;-81
2023/10/11 00:53:12;;;;;;;12.13;6.40;;;13.60;99.90;;;;;;5058434;28;20730;-82
2023/10/11 00:55:41;;;;;;;9.27;6.70;;;13.60;99.90;;;;;;5060934;28;21031;-82
2023/10/11 00:58:08;;;;;;;11.63;6.83;;;13.60;99.90;;;;;;5060043;28;20213;-83
2023/10/11 01:00:36;;;;;;;13.77;6.80;;;13.60;99.90;;;;;;5064607;28;20242;-81
2023/10/11 01:03:08;;;;;;;13.30;6.63;;;13.60;99.90;;;;;;5059271;28;20903;-83
2023/10/11 01:05:43;;;;;;;11.97;6.47;;;13.60;99.90;;;;;;5055035;28;20218;-84
2023/10/11 01:08:12;;;;;;;10.93;6.20;;;13.60;99.90;;;;;;5058969;28;20227;-85
2023/10/11 01:10:45;;;;;;;11.33;7.07;;;13.70;99.90;;;;;;5059797;28;20961;-82
2023/10/11 01:13:14;;;;;;;15.17;6.50;;;13.70;99.90;;;;;;5056424;28;20278;-83
2023/10/11 01:15:42;;;;;;;9.20;5.70;;;13.70;99.90;;;;;;5063680;28;20437;-84
2023/10/11 01:18:12;;;;;;;9.77;5.90;;;13.70;99.90;;;;;;5068240;28;20226;-82
2023/10/11 01:20:40;;;;;;;9.23;5.93;;;13.70;99.90;;;;;;5066727;28;20225;-86
2023/10/11 01:23:08;;;;;;;11.90;6.13;;;13.70;99.90;;;;;;5062579;28;20928;-82
2023/10/11 01:25:35;;;;;;;9.60;6.03;;;13.70;99.90;;;;;;5061067;28;20230;-82
2023/10/11 01:28:02;;;;;;;9.33;5.87;;;13.60;99.90;;;;;;5066340;28;20248;-82
2023/10/11 01:30:32;;;;;;;9.07;5.47;;;13.70;99.90;;;;;;5062418;28;20229;-82
2023/10/11 01:32:59;;;;;;;10.13;6.07;;;13.70;99.90;;;;;;5058888;28;20238;-87
2023/10/11 01:35:35;;;;;;;9.97;5.83;;;13.70;99.90;;;;;;5062930;28;20242;-85
2023/10/11 01:38:05;;;;;;;9.20;6.03;;;13.70;99.90;;;;;;5049840;28;20608;-83
2023/10/11 01:40:33;;;;;;;11.83;6.23;;;13.70;99.90;;;;;;5056195;28;20310;-82
2023/10/11 01:43:02;;;;;;;10.20;5.90;;;13.70;99.90;;;;;;5065291;28;20234;-84
2023/10/11 01:45:30;;;;;;;8.93;5.50;;;13.70;99.90;;;;;;5060314;28;20772;-84
2023/10/11 01:47:57;;;;;;;10.40;5.80;;;13.70;99.90;;;;;;5068957;28;20225;-83
2023/10/11 01:50:25;;;;;;;11.77;6.40;;;13.70;99.90;;;;;;5057262;28;20245;-83
2023/10/11 01:52:52;;;;;;;10.83;6.20;;;13.80;99.90;;;;;;5063940;28;20237;-80
2023/10/11 01:55:22;;;;;;;9.73;5.67;;;13.80;99.90;;;;;;5063221;28;20903;-81
2023/10/11 01:57:50;;;;;;;9.63;6.07;;;13.90;99.90;;;;;;5065670;28;20234;-80
2023/10/11 02:00:23;;;;;;;9.43;5.60;;;13.90;99.90;;;;;;5063707;28;20931;-81
2023/10/11 02:02:55;;;;;;;7.93;5.80;;;14.00;99.90;;;;;;5064782;28;20229;-81
2023/10/11 02:05:22;;;;;;;9.83;5.30;;;14.10;99.90;;;;;;5056144;28;20222;-80
2023/10/11 02:07:50;;;;;;;12.37;6.43;;;14.10;99.90;;;;;;5061312;28;20270;-81
2023/10/11 02:10:25;;;;;;;9.60;5.87;;;14.20;99.90;;;;;;5054447;28;20292;-81
2023/10/11 02:12:56;;;;;;;10.07;5.60;;;14.20;99.90;;;;;;5061129;28;20226;-82
2023/10/11 02:15:28;;;;;;;11.80;6.30;;;14.30;99.90;;;;;;5062435;28;20226;-82
2023/10/11 02:17:58;;;;;;;10.43;5.90;;;14.30;99.90;;;;;;5065370;28;20715;-81
2023/10/11 02:20:25;;;;;;;9.87;6.10;;;14.30;99.90;;;;;;5063387;28;20238;-83
2023/10/11 02:22:55;;;;;;;9.20;6.30;;;14.40;99.90;;;;;;5061930;28;20540;-83
2023/10/11 02:25:24;;;;;;;11.33;5.93;;;14.30;99.90;;;;;;5065552;28;20271;-83
2023/10/11 02:27:53;;;;;;;10.17;6.53;;;14.40;99.90;;;;;;5062092;28;20295;-83
2023/10/11 02:30:24;;;;;;;11.07;6.37;;;14.40;99.90;;;;;;5060584;28;20975;-82
2023/10/11 02:32:58;;;;;;;10.43;6.23;;;14.40;99.90;;;;;;5079924;28;20287;-83
2023/10/11 02:35:27;;;;;;;12.37;6.20;;;14.40;99.90;;;;;;5060767;28;20265;-83
2023/10/11 02:37:55;;;;;;;9.07;5.87;;;14.40;99.90;;;;;;5062928;28;20231;-83
2023/10/11 02:40:24;;;;;;;12.87;6.23;;;14.40;99.90;;;;;;5060068;28;20226;-85
2023/10/11 02:42:52;;;;;;;10.80;6.63;;;14.40;99.90;;;;;;5060123;28;20234;-84
2023/10/11 02:45:22;;;;;;;10.17;6.40;;;14.40;99.90;;;;;;5055613;28;20323;-84
2023/10/11 02:47:49;;;;;;;19.87;6.83;;;14.40;99.90;;;;;;5066692;28;20988;-83
2023/10/11 02:50:22;;;;;;;11.63;6.60;;;14.40;99.90;;;;;;5064864;28;20229;-83
2023/10/11 02:52:58;;;;;;;10.80;6.80;;;14.40;99.90;;;;;;5064540;28;20225;-82
2023/10/11 02:55:27;;;;;;;10.87;6.70;;;14.30;99.90;;;;;;5059672;28;20682;-82
2023/10/11 02:58:05;;;;;;;10.73;6.57;;;14.30;99.90;;;;;;5069073;28;20229;-82
2023/10/11 03:00:36;;;;;;;15.10;6.93;;;14.30;99.90;;;;;;5062784;28;20221;-83
2023/10/11 03:03:07;;;;;;;15.73;6.63;;;14.30;99.90;;;;;;5062790;28;20224;-82
2023/10/11 03:05:37;;;;;;;13.43;6.60;;;14.30;99.90;;;;;;5059435;28;20300;-82
2023/10/11 03:08:14;;;;;;;12.87;6.83;;;14.30;99.90;;;;;;5066151;28;20225;-82
2023/10/11 03:10:44;;;;;;;10.90;6.60;;;14.30;99.90;;;;;;5067990;28;20257;-82
2023/10/11 03:13:19;;;;;;;12.13;7.03;;;14.30;99.90;;;;;;5066522;28;20795;-81
2023/10/11 03:15:54;;;;;;;11.23;6.97;;;14.20;99.90;;;;;;5064363;28;20231;-83
2023/10/11 03:18:25;;;;;;;10.03;6.23;;;14.20;99.90;;;;;;5063208;28;20248;-82
2023/10/11 03:20:58;;;;;;;14.63;7.00;;;14.20;99.90;;;;;;5063744;28;20241;-82
2023/10/11 03:23:27;;;;;;;10.67;6.40;;;14.20;99.90;;;;;;5057921;28;20266;-81
2023/10/11 03:25:55;;;;;;;13.83;6.70;;;14.20;99.90;;;;;;5062184;28;21561;-82
2023/10/11 03:28:26;;;;;;;14.07;7.13;;;14.20;99.90;;;;;;5061484;28;20247;-82
2023/10/11 03:30:55;;;;;;;12.77;6.97;;;14.20;99.90;;;;;;5062177;28;20234;-81
2023/10/11 03:33:21;;;;;;;15.67;7.37;;;14.10;99.90;;;;;;5060096;28;20313;-80
2023/10/11 03:35:50;;;;;;;12.77;6.93;;;14.20;99.90;;;;;;5067411;28;20928;-82
2023/10/11 03:38:19;;;;;;;13.97;7.13;;;14.10;99.90;;;;;;5067371;28;20231;-81
2023/10/11 03:40:55;;;;;;;10.90;7.43;;;14.10;99.90;;;;;;5065467;28;20230;-80
2023/10/11 03:43:23;;;;;;;11.77;7.00;;;14.10;99.90;;;;;;5065826;28;20223;-80
2023/10/11 03:45:56;;;;;;;12.57;7.27;;;14.10;99.90;;;;;;5066445;28;20236;-80
2023/10/11 03:48:28;;;;;;;12.13;7.20;;;14.10;99.90;;;;;;5071237;28;20221;-81
2023/10/11 03:50:54;;;;;;;12.40;7.30;;;14.10;99.90;;;;;;5074706;28;20779;-81
2023/10/11 03:53:21;;;;;;;14.73;7.70;;;14.10;99.90;;;;;;5060905;28;20222;-81
2023/10/11 03:55:49;;;;;;;12.37;7.20;;;14.10;99.90;;;;;;5065191;28;20234;-81
2023/10/11 03:58:32;;;;;;;11.47;7.60;;;14.10;99.90;;;;;;5065752;28;20253;-83
2023/10/11 04:01:06;;;;;;;13.40;7.73;;;14.10;99.90;;;;;;5064835;28;20680;-80
2023/10/11 04:03:34;;;;;;;12.60;7.00;;;14.10;99.90;;;;;;5071599;28;20226;-80
2023/10/11 04:06:06;;;;;;;11.23;7.10;;;14.10;99.90;;;;;;5071885;28;20895;-83
2023/10/11 04:08:40;;;;;;;11.00;7.20;;;14.10;99.90;;;;;;5065721;28;20692;-85
2023/10/11 04:11:18;;;;;;;11.53;7.17;;;14.00;99.90;;;;;;5061129;28;20223;-80
2023/10/11 04:13:50;;;;;;;11.57;7.33;;;14.10;99.90;;;;;;5063626;28;20232;-80
2023/10/11 04:16:19;;;;;;;11.17;7.17;;;14.10;99.90;;;;;;5061034;28;20233;-80
2023/10/11 04:18:52;;;;;;;12.53;7.57;;;14.00;99.90;;;;;;5074932;28;20238;-80
2023/10/11 04:21:39;;;;;;;14.03;7.43;;;14.10;99.90;;;;;;5069461;28;20508;-81
2023/10/11 04:24:09;;;;;;;12.33;7.33;;;14.10;99.90;;;;;;5067176;28;20250;-80
2023/10/11 04:26:37;;;;;;;14.67;7.20;;;14.10;99.90;;;;;;5070001;28;20223;-83
2023/10/11 04:29:06;;;;;;;17.40;7.80;;;14.10;99.90;;;;;;5069130;28;20328;-83
2023/10/11 04:31:54;;;;;;;11.97;7.03;;;14.00;99.90;;;;;;5083002;28;20225;-83
2023/10/11 04:34:24;;;;;;;16.10;7.87;;;14.00;99.90;;;;;;5071067;28;20241;-83
2023/10/11 04:36:55;;;;;;;13.93;7.63;;;14.00;99.90;;;;;;5065936;28;20234;-83
2023/10/11 04:39:28;;;;;;;14.07;7.00;;;14.00;99.90;;;;;;5066556;28;20236;-82
2023/10/11 04:41:57;;;;;;;13.27;8.07;;;14.10;99.90;;;;;;5057623;28;20251;-82
2023/10/11 04:44:30;;;;;;;12.87;7.30;;;14.00;99.90;;;;;;5066131;28;20819;-82
2023/10/11 04:46:58;;;;;;;11.93;7.37;;;14.00;99.90;;;;;;5062552;28;20233;-83
2023/10/11 04:49:30;;;;;;;13.07;7.07;;;14.00;99.90;;;;;;5062931;28;20234;-83
2023/10/11 04:51:57;;;;;;;13.47;7.30;;;14.00;99.90;;;;;;5070677;28;20237;-84
2023/10/11 04:54:35;;;;;;;13.50;7.30;;;14.00;99.90;;;;;;5064219;28;20222;-84
2023/10/11 04:57:07;;;;;;;13.17;6.97;;;14.00;99.90;;;;;;5073098;28;20237;-83
2023/10/11 04:59:36;;;;;;;13.80;7.67;;;14.00;99.90;;;;;;5066023;28;20231;-82
2023/10/11 05:02:11;;;;;;;11.90;6.87;;;14.00;99.90;;;;;;5071587;28;20251;-81
2023/10/11 05:04:44;;;;;;;11.67;7.00;;;14.00;99.90;;;;;;5070608;28;20236;-85
2023/10/11 05:07:13;;;;;;;15.93;8.33;;;13.90;99.90;;;;;;5062148;28;20620;-84
2023/10/11 05:09:40;;;;;;;10.87;7.30;;;13.90;99.90;;;;;;5058468;28;20675;-81
2023/10/11 05:12:10;;;;;;;14.80;7.93;;;13.90;99.90;;;;;;5061872;28;20277;-81
2023/10/11 05:14:41;;;;;;;12.83;7.83;;;13.90;99.90;;;;;;5065406;28;20922;-83
2023/10/11 05:17:32;;;;;;;13.00;7.50;;;13.90;99.90;;;;;;5062570;28;20977;-83
2023/10/11 05:20:23;;;;;;;17.73;7.93;;;13.90;99.90;;;;;;5056981;28;20229;-80
2023/10/11 05:22:49;;;;;;;12.97;7.77;;;13.90;99.90;;;;;;5063974;28;20291;-80
2023/10/11 05:25:39;;;;;;;11.40;7.30;;;13.90;99.90;;;;;;5061978;28;20226;-80
2023/10/11 05:28:26;;;;;;;15.10;7.33;;;13.90;99.90;;;;;;5060746;28;20229;-80
2023/10/11 05:33:45;;;;;;;11.53;7.13;;;14.00;99.90;;;;;;5061105;28;20625;-80
2023/10/11 05:36:31;;;;;;;13.57;7.43;;;14.00;99.90;;;;;;5061748;28;20250;-81
2023/10/11 05:52:40;;;;;;;14.17;7.17;;;14.00;99.90;;;;;;5025039;28;20218;-81
2023/10/11 05:55:08;;;;;;;11.30;6.93;;;14.00;99.90;;;;;;5061193;28;20618;-80
2023/10/11 05:57:35;;;;;;;12.37;8.07;;;14.00;99.90;;;;;;5061603;28;20223;-82
2023/10/11 06:00:11;;;;;;;10.43;7.40;;;14.00;99.90;;;;;;5057896;28;20222;-82
2023/10/11 06:02:47;;;;;;;17.43;7.47;;;14.10;99.90;;;;;;5043195;28;20233;-81
2023/10/11 06:05:14;;;;;;;12.43;7.70;;;14.00;99.90;;;;;;5058484;28;20780;-81
2023/10/11 06:07:42;;;;;;;11.87;7.27;;;14.10;99.90;;;;;;5067650;28;20223;-81
2023/10/11 06:10:13;;;;;;;14.17;8.03;;;14.10;99.90;;;;;;5057110;28;20726;-81
2023/10/11 06:12:40;;;;;;;12.90;7.23;;;14.10;99.90;;;;;;5061371;28;20232;-82
2023/10/11 06:15:16;;;;;;;13.73;7.50;;;14.10;99.90;;;;;;5064359;28;20231;-81
2023/10/11 06:17:45;;;;;;;11.67;7.37;;;14.20;99.90;;;;;;5059033;28;20310;-82
2023/10/11 06:20:23;;;;;;;12.10;7.53;;;14.20;99.90;;;;;;5061485;28;20234;-82
2023/10/11 06:22:51;;;;;;;13.17;8.00;;;14.20;99.90;;;;;;5064269;28;20232;-82
2023/10/11 06:25:22;;;;;;;14.20;7.37;;;14.30;99.90;;;;;;5061348;28;20245;-83
2023/10/11 06:30:35;;;;;;;12.13;7.90;;;14.40;99.90;;;;;;5064716;28;20245;-81
2023/10/11 06:33:06;;;;;;;12.90;7.27;;;14.40;99.90;;;;;;5055684;28;20236;-80
2023/10/11 06:35:43;;;;;;;14.53;7.37;;;14.50;99.90;;;;;;5063879;28;20228;-79
2023/10/11 06:38:13;;;;;;;11.70;7.30;;;14.50;99.90;;;;;;5058556;28;20218;-80
2023/10/11 06:40:39;;;;;;;13.17;7.43;;;14.60;99.90;;;;;;5057002;28;21957;-80
2023/10/11 06:43:06;;;;;;;12.00;7.37;;;14.60;99.90;;;;;;5058130;28;20225;-80
2023/10/11 06:45:33;;;;;;;14.90;8.50;;;14.60;99.90;;;;;;5055617;28;20254;-79
2023/10/11 06:48:06;;;;;;;12.77;7.87;;;14.70;99.90;;;;;;5058122;28;20735;-80
2023/10/11 06:50:36;;;;;;;14.83;6.97;;;14.70;99.90;;;;;;5059184;28;20227;-82
2023/10/11 06:53:06;;;;;;;11.67;7.33;;;14.80;99.90;;;;;;5080631;28;20736;-80
2023/10/11 06:55:35;;;;;;;13.53;8.07;;;14.80;99.90;;;;;;5057822;28;20248;-80
2023/10/11 06:58:09;;;;;;;12.57;7.93;;;14.90;99.90;;;;;;5053866;28;20253;-81
2023/10/11 07:00:45;;;;;;;13.67;6.93;;;15.00;99.90;;;;;;5057051;28;20220;-81
2023/10/11 07:03:26;;;;;;;10.03;7.33;;;15.00;99.90;;;;;;5052864;28;20308;-81
2023/10/11 07:05:56;;;;;;;13.43;7.67;;;15.10;99.90;;;;;;5062982;28;20227;-81
2023/10/11 07:08:31;;;;;;;13.03;7.13;;;15.20;99.90;;;;;;5052881;28;20273;-81
2023/10/11 07:11:16;;;;;;;15.13;7.40;;;15.30;99.90;;;;;;5053664;28;20698;-81
2023/10/11 07:16:31;;;;;;;13.23;7.47;;;15.40;99.90;;;;;;5054618;28;20713;-81
2023/10/11 07:18:58;;;;;;;12.63;6.93;;;15.50;99.90;;;;;;5059792;28;20251;-81
2023/10/11 07:21:27;;;;;;;11.57;7.67;;;15.60;99.90;;;;;;5061379;28;20292;-82
2023/10/11 07:23:57;;;;;;;14.00;7.33;;;15.60;99.90;;;;;;5056945;28;20952;-82
2023/10/11 07:29:13;;;;;;;12.90;7.60;;;15.60;99.90;;;;;;5055352;28;20261;-80
2023/10/11 07:31:48;;;;;;;11.70;7.53;;;15.70;99.90;;;;;;5062901;28;20224;-81
2023/10/11 07:34:17;;;;;;;12.27;7.60;;;15.70;99.90;;;;;;5059693;28;20715;-81
2023/10/11 07:36:45;;;;;;;12.57;7.33;;;15.80;99.90;;;;;;5067085;28;20233;-80
2023/10/11 07:39:19;;;;;;;11.83;7.67;;;15.80;99.90;;;;;;5055477;28;20245;-81
2023/10/11 07:41:48;;;;;;;14.57;7.10;;;15.80;99.90;;;;;;5062089;28;20229;-81
2023/10/11 07:44:18;;;;;;;14.63;7.90;;;15.80;99.90;;;;;;5063029;28;20278;-81
2023/10/11 07:46:45;;;;;;;11.07;6.90;;;15.90;99.90;;;;;;5064071;28;20246;-82
2023/10/11 07:49:22;;;;;;;16.13;7.20;;;15.90;99.90;;;;;;5066886;28;20744;-80
2023/10/11 07:51:52;;;;;;;12.70;7.13;;;15.90;99.90;;;;;;5063969;28;20312;-81
2023/10/11 07:54:20;;;;;;;15.63;7.33;;;15.90;99.90;;;;;;5061816;28;20226;-81
2023/10/11 07:56:49;;;;;;;15.73;7.67;;;16.00;99.90;;;;;;5061556;28;20224;-81
2023/10/11 07:59:16;;;;;;;11.50;7.27;;;16.00;99.90;;;;;;5056631;28;20717;-81
2023/10/11 08:01:45;;;;;;;12.53;7.83;;;16.00;99.90;;;;;;5057800;28;20327;-82
2023/10/11 08:04:17;;;;;;;13.03;7.30;;;16.00;99.90;;;;;;5058358;28;20256;-82
2023/10/11 08:06:44;;;;;;;12.13;7.53;;;16.10;99.90;;;;;;5059117;28;20237;-82
2023/10/11 08:09:18;;;;;;;13.40;7.27;;;16.10;99.90;;;;;;5061167;28;20313;-82
2023/10/11 08:11:48;;;;;;;11.23;7.23;;;16.10;99.90;;;;;;5055939;28;20233;-82
2023/10/11 08:14:17;;;;;;;14.97;7.27;;;16.20;99.90;;;;;;5066346;28;20252;-82
2023/10/11 08:16:47;;;;;;;10.90;7.33;;;16.20;99.90;;;;;;5057558;28;20310;-82
2023/10/11 08:19:14;;;;;;;15.23;7.93;;;16.20;99.90;;;;;;5052956;28;20231;-81
2023/10/11 08:21:41;;;;;;;14.40;7.03;;;16.20;99.90;;;;;;5062054;28;20221;-81
2023/10/11 08:24:15;;;;;;;11.77;7.53;;;16.30;99.90;;;;;;5060213;28;20606;-81
2023/10/11 08:26:45;;;;;;;15.33;7.70;;;16.30;99.90;;;;;;5059260;28;20735;-81
2023/10/11 08:29:17;;;;;;;15.27;9.13;;;16.30;99.90;;;;;;5075832;28;20775;-81
2023/10/11 08:31:48;;;;;;;12.83;7.07;;;16.30;99.90;;;;;;5061193;28;20235;-82
2023/10/11 08:34:15;;;;;;;16.90;8.37;;;16.30;99.90;;;;;;5056472;28;20225;-81
2023/10/11 08:36:43;;;;;;;18.43;7.70;;;16.40;99.90;;;;;;5057522;28;20486;-82
2023/10/11 08:39:13;;;;;;;15.60;8.27;;;16.40;99.90;;;;;;5048387;28;20235;-80
2023/10/11 08:41:43;;;;;;;13.07;7.47;;;16.50;99.90;;;;;;5053750;28;20727;-81
2023/10/11 08:44:20;;;;;;;15.53;8.50;;;16.50;99.90;;;;;;5064578;28;20240;-81
2023/10/11 08:46:49;;;;;;;14.60;8.80;;;16.50;99.90;;;;;;5060006;28;20234;-81
2023/10/11 08:49:17;;;;;;;12.67;7.83;;;16.60;99.90;;;;;;5060527;28;20705;-81
2023/10/11 08:51:44;;;;;;;14.37;7.90;;;16.70;99.90;;;;;;5057217;28;20224;-81
2023/10/11 08:54:12;;;;;;;13.10;7.40;;;16.80;99.90;;;;;;5063822;28;20225;-82
2023/10/11 08:56:39;;;;;;;12.17;7.63;;;16.90;99.90;;;;;;5059718;28;20789;-82
2023/10/11 08:59:07;;;;;;;13.93;7.73;;;16.90;99.90;;;;;;5057333;28;20239;-83
2023/10/11 09:01:36;;;;;;;16.13;8.67;;;17.00;99.90;;;;;;5054382;28;20222;-84
2023/10/11 09:04:06;;;;;;;17.00;8.90;;;17.10;99.90;;;;;;5061767;28;20318;-83
2023/10/11 09:06:35;;;;;;;21.40;8.43;;;17.20;99.90;;;;;;5062798;28;20322;-83
2023/10/11 09:09:03;;;;;;;18.20;8.53;;;17.30;99.90;;;;;;5059243;28;20226;-82
2023/10/11 09:11:31;;;;;;;12.93;8.17;;;17.30;99.90;;;;;;5059130;28;20225;-84
2023/10/11 09:14:12;;;;;;;13.63;7.90;;;17.30;99.90;;;;;;5065147;28;20223;-82
2023/10/11 09:16:40;;;;;;;13.00;7.90;;;17.30;99.90;;;;;;5060250;28;20227;-82
2023/10/11 09:19:10;;;;;;;16.23;8.50;;;17.40;99.90;;;;;;5059848;28;20221;-82
2023/10/11 09:21:37;;;;;;;15.57;8.07;;;17.40;99.90;;;;;;5059619;28;20223;-82
2023/10/11 09:24:21;;;;;;;15.50;8.93;;;17.40;99.90;;;;;;5057644;28;20217;-83
2023/10/11 09:27:08;;;;;;;13.53;8.33;;;17.50;99.90;;;;;;5058634;28;20238;-83
2023/10/11 09:29:38;;;;;;;14.27;8.20;;;17.60;99.90;;;;;;5058517;28;20585;-83
2023/10/11 09:32:06;;;;;;;12.50;8.13;;;17.70;99.90;;;;;;5056814;28;20241;-84
2023/10/11 09:34:34;;;;;;;14.13;8.03;;;17.80;99.90;;;;;;5055174;28;20227;-83
2023/10/11 09:37:02;;;;;;;14.60;8.17;;;17.90;99.90;;;;;;5058430;28;20223;-84
2023/10/11 09:39:29;;;;;;;12.60;7.77;;;18.10;99.90;;;;;;5053820;28;20246;-83
2023/10/11 09:42:02;;;;;;;14.07;8.00;;;18.20;99.90;;;;;;5055073;28;20289;-82
2023/10/11 09:44:37;;;;;;;12.93;8.67;;;18.30;99.90;;;;;;5067997;28;20759;-82
2023/10/11 09:47:05;;;;;;;14.47;8.50;;;18.50;99.90;;;;;;5052716;28;20266;-85
2023/10/11 09:49:41;;;;;;;16.17;8.87;;;18.60;99.90;;;;;;5051235;28;21039;-84
2023/10/11 09:52:09;;;;;;;11.30;8.47;;;18.60;99.90;;;;;;5057853;28;20939;-81
2023/10/11 09:54:38;;;;;;;13.77;7.93;;;18.60;99.90;;;;;;5062043;28;20230;-84
2023/10/11 09:57:13;;;;;;;11.80;7.83;;;18.60;99.90;;;;;;5059812;28;20222;-83
2023/10/11 09:59:47;;;;;;;12.00;8.13;;;18.50;99.90;;;;;;5058294;28;20219;-84
2023/10/11 10:02:22;;;;;;;14.10;7.93;;;18.40;99.90;;;;;;5055331;28;20232;-83
2023/10/11 10:04:57;;;;;;;13.87;8.60;;;18.30;99.90;;;;;;5057467;28;20228;-84
2023/10/11 10:07:26;;;;;;;17.03;8.40;;;18.20;99.90;;;;;;5063670;28;20227;-83
2023/10/11 10:09:54;;;;;;;14.30;8.43;;;18.20;99.90;;;;;;5052096;28;20253;-83
2023/10/11 10:12:21;;;;;;;14.47;8.60;;;18.10;99.90;;;;;;5052334;28;20234;-84
2023/10/11 10:14:53;;;;;;;17.10;9.30;;;18.00;99.90;;;;;;5053438;28;20258;-84
2023/10/11 10:17:20;;;;;;;10.73;8.20;;;17.90;99.90;;;;;;5050502;28;20226;-84
2023/10/11 10:19:47;;;;;;;15.77;9.33;;;17.90;99.90;;;;;;5058226;28;20234;-85
2023/10/11 10:22:17;;;;;;;15.33;8.80;;;17.80;99.90;;;;;;5056290;28;20220;-84
2023/10/11 10:24:45;;;;;;;18.27;8.90;;;17.80;99.90;;;;;;5060518;28;20235;-84
2023/10/11 10:27:37;;;;;;;15.10;8.43;;;17.70;99.90;;;;;;5055769;28;20351;-83
2023/10/11 10:30:06;;;;;;;13.87;8.50;;;17.70;99.90;;;;;;5059838;28;20678;-83
2023/10/11 10:32:33;;;;;;;14.73;8.97;;;17.60;99.90;;;;;;5052332;28;20322;-84
2023/10/11 10:35:25;;;;;;;12.47;9.00;;;17.60;99.90;;;;;;5059603;28;20691;-85
2023/10/11 10:37:56;;;;;;;16.30;8.63;;;17.60;99.90;;;;;;5073154;28;20235;-84
2023/10/11 10:40:26;;;;;;;16.10;8.90;;;17.50;99.90;;;;;;5057387;28;20237;-84
2023/10/11 10:43:19;;;;;;;14.80;9.50;;;17.50;99.90;;;;;;5055713;28;20576;-84
2023/10/11 10:45:48;;;;;;;14.90;9.70;;;17.50;99.90;;;;;;5055554;28;20230;-84
2023/10/11 10:48:15;;;;;;;15.73;9.77;;;17.40;99.90;;;;;;5051193;28;20227;-84
2023/10/11 10:50:50;;;;;;;14.33;10.07;;;17.40;99.90;;;;;;5061408;28;20320;-85
2023/10/11 10:53:18;;;;;;;15.67;9.33;;;17.30;99.90;;;;;;5051134;28;20211;-84
2023/10/11 10:55:44;;;;;;;17.90;10.23;;;17.30;99.90;;;;;;5055697;28;20729;-84
2023/10/11 10:58:18;;;;;;;17.97;9.97;;;17.30;99.90;;;;;;5068885;28;20875;-83
2023/10/11 11:00:47;;;;;;;19.27;10.37;;;17.20;99.90;;;;;;5059904;28;20230;-84
2023/10/11 11:03:20;;;;;;;20.70;10.43;;;17.20;99.90;;;;;;5052545;28;20215;-84
2023/10/11 11:05:56;;;;;;;16.83;10.23;;;17.20;99.90;;;;;;5057040;28;20513;-81
2023/10/11 11:08:27;;;;;;;15.13;10.40;;;17.10;99.90;;;;;;5066625;28;20225;-81
2023/10/11 11:11:18;;;;;;;16.47;10.13;;;17.10;99.90;;;;;;5058451;28;20233;-81
2023/10/11 11:13:47;;;;;;;17.67;11.07;;;17.00;99.90;;;;;;5061336;28;20309;-81
2023/10/11 11:16:17;;;;;;;13.97;9.77;;;17.00;99.90;;;;;;5058999;28;20892;-81
2023/10/11 11:18:44;;;;;;;17.37;10.43;;;17.10;99.90;;;;;;5058798;28;20234;-81
2023/10/11 11:21:23;;;;;;;19.87;11.20;;;17.00;99.90;;;;;;5060102;28;20533;-81
2023/10/11 11:23:51;;;;;;;17.40;10.43;;;16.90;99.90;;;;;;5066739;28;20855;-81
2023/10/11 11:26:21;;;;;;;14.90;11.00;;;16.90;99.90;;;;;;5061205;28;20226;-80
2023/10/11 11:28:49;;;;;;;17.93;11.70;;;16.90;99.90;;;;;;5058255;28;20243;-81
2023/10/11 11:31:30;;;;;;;16.80;11.77;;;16.90;99.90;;;;;;5060665;28;20224;-81
2023/10/11 11:34:11;;;;;;;17.37;10.83;;;16.90;99.90;;;;;;5049832;28;20250;-80
2023/10/11 11:36:40;;;;;;;18.73;11.30;;;16.90;99.90;;;;;;5052273;28;20277;-78
2023/10/11 11:39:25;;;;;;;17.43;10.60;;;16.90;99.90;;;;;;5051604;28;20219;-76
2023/10/11 11:41:52;;;;;;;16.77;10.43;;;16.90;99.90;;;;;;5055161;28;20250;-79
2023/10/11 11:44:21;;;;;;;16.63;10.50;;;16.90;99.90;;;;;;5059681;28;20317;-76
2023/10/11 11:46:51;;;;;;;17.87;10.27;;;16.90;99.90;;;;;;5052179;28;20307;-76
2023/10/11 11:49:20;;;;;;;16.47;10.10;;;16.90;99.90;;;;;;5044629;28;20220;-77
2023/10/11 11:51:50;;;;;;;15.90;9.80;;;16.90;99.90;;;;;;5061264;28;20231;-78
2023/10/11 11:54:19;;;;;;;14.70;9.57;;;16.90;99.90;;;;;;5051362;28;20835;-77
2023/10/11 11:56:46;;;;;;;14.17;9.30;;;16.90;99.90;;;;;;5055105;28;20227;-78
2023/10/11 11:59:19;;;;;;;17.67;10.40;;;16.90;99.90;;;;;;5053901;28;20231;-78
2023/10/11 12:01:45;;;;;;;14.57;9.67;;;16.90;99.90;;;;;;5052614;28;20313;-76
2023/10/11 12:04:13;;;;;;;11.77;8.87;;;16.90;99.90;;;;;;5053179;28;20729;-76
2023/10/11 12:06:39;;;;;;;14.63;9.50;;;17.00;99.90;;;;;;5056610;28;20944;-79
2023/10/11 12:09:06;;;;;;;13.53;8.87;;;17.00;99.90;;;;;;5056412;28;20262;-76
2023/10/11 12:11:34;;;;;;;11.67;8.70;;;17.10;99.90;;;;;;5057789;28;20344;-78
2023/10/11 12:14:04;;;;;;;13.57;8.50;;;17.20;99.90;;;;;;5055136;28;20215;-78
2023/10/11 12:16:30;;;;;;;16.00;8.43;;;17.20;99.90;;;;;;5058236;28;20323;-77
2023/10/11 12:18:59;;;;;;;11.97;8.03;;;17.30;99.90;;;;;;5052378;28;20225;-78
2023/10/11 12:21:26;;;;;;;10.83;8.10;;;17.30;99.90;;;;;;5052167;28;20285;-77
2023/10/11 12:23:52;;;;;;;13.00;8.23;;;17.40;99.90;;;;;;5058613;28;20310;-78
2023/10/11 12:26:20;;;;;;;10.50;7.73;;;17.40;99.90;;;;;;5045233;28;20829;-78
2023/10/11 12:28:49;;;;;;;12.07;7.47;;;17.40;99.90;;;;;;5059825;28;20235;-78
2023/10/11 12:31:17;;;;;;;11.30;8.53;;;17.40;99.90;;;;;;5059172;28;20240;-79
2023/10/11 12:33:44;;;;;;;12.90;8.13;;;17.40;99.90;;;;;;5068729;28;20851;-78
2023/10/11 12:36:11;;;;;;;11.83;7.37;;;17.50;99.90;;;;;;5060197;28;20226;-77
2023/10/11 12:38:39;;;;;;;14.03;7.40;;;17.50;99.90;;;;;;5061564;28;20222;-78
2023/10/11 12:41:07;;;;;;;10.93;6.70;;;17.60;99.90;;;;;;5058443;28;20263;-78
2023/10/11 12:43:34;;;;;;;9.40;7.00;;;17.60;99.90;;;;;;5060771;28;20232;-77
2023/10/11 12:46:02;;;;;;;10.57;7.20;;;17.60;99.90;;;;;;5063519;28;20257;-77
2023/10/11 12:48:29;;;;;;;11.20;6.40;;;17.70;99.90;;;;;;5056072;28;20244;-78
2023/10/11 12:50:58;;;;;;;12.07;6.63;;;17.70;99.90;;;;;;5071108;28;20384;-76
2023/10/11 12:53:28;;;;;;;9.73;6.73;;;17.80;99.90;;;;;;5062438;28;20296;-78
2023/10/11 12:55:55;;;;;;;10.30;5.90;;;17.80;99.90;;;;;;5064533;28;20231;-76
2023/10/11 12:58:27;;;;;;;6.80;5.53;;;17.90;99.90;;;;;;5067000;28;20306;-77
2023/10/11 13:00:58;;;;;;;8.37;5.63;;;18.00;99.90;;;;;;5070383;28;20234;-77
2023/10/11 13:03:29;;;;;;;8.37;5.60;;;18.00;99.90;;;;;;5060120;28;20234;-77
2023/10/11 13:05:56;;;;;;;7.80;5.90;;;18.10;99.90;;;;;;5066243;28;20232;-78
2023/10/11 13:08:26;;;;;;;7.33;5.70;;;18.10;99.90;;;;;;5060163;28;20788;-77
2023/10/11 13:10:53;;;;;;;10.93;6.03;;;18.20;99.90;;;;;;5066615;28;20227;-78
2023/10/11 13:13:21;;;;;;;9.40;6.40;;;18.20;99.90;;;;;;5062033;28;20227;-79
2023/10/11 13:15:57;;;;;;;12.73;6.30;;;18.20;99.90;;;;;;5069800;28;21311;-79
2023/10/11 13:18:24;;;;;;;9.97;6.70;;;18.20;99.90;;;;;;5066303;28;20232;-77
2023/10/11 13:20:56;;;;;;;9.97;6.53;;;18.30;99.90;;;;;;5049311;28;20258;-78